Time,TemperatureF,DewpointF,PressureIn,WindDirection,WindDirectionDegrees,WindSpeedMPH,WindSpeedGustMPH,Humidity,HourlyPrecipIn,Conditions,Clouds,dailyrainin,SolarRadiationWatts/m^2,SoftwareType,DateUTC
2013-10-10 00:01:00,56.6,49.0,30.40,ESE,107,2.0,4.0,76,0.00,,,0.00,0,weatherlink.com 1.10,2013-10-10 04:01:00,
2013-10-10 00:02:00,56.5,49.0,30.40,NE,53,2.0,2.0,76,0.00,,,0.00,0,Wunderground v.1.15,2013-10-10 04:02:00,
2013-10-10 00:03:00,56.6,49.1,30.39,West,259,5.0,5.0,76,0.00,,,0.00,0,Wunderground v.1.15,2013-10-10 04:03:00,
2013-10-10 00:07:00,56.5,49.4,30.39,NE,55,2.0,5.0,77,0.00,,,0.00,0,Wunderground v.1.15,2013-10-10 04:07:00,
2013-10-10 00:12:00,56.5,49.4,30.39,East,88,1.0,3.0,77,0.00,,,0.00,0,Wunderground v.1.15,2013-10-10 04:12:00,
2013-10-10 00:15:00,56.5,49.4,30.39,NNE,26,4.0,4.0,77,0.00,,,0.00,0,Wunderground v.1.15,2013-10-10 04:15:00,
2013-10-10 00:20:00,56.5,49.7,30.39,East,81,2.0,3.0,78,0.00,,,0.00,0,Wunderground v.1.15,2013-10-10 04:20:00,
2013-10-10 00:26:00,56.4,49.6,30.38,SW,236,0.0,9.0,78,0.00,,,0.00,0,Wunderground v.1.15,2013-10-10 04:26:00,
2013-10-10 00:31:00,56.4,50.0,30.38,East,101,0.0,2.0,79,0.00,,,0.00,0,Wunderground v.1.15,2013-10-10 04:31:00,
2013-10-10 00:37:00,56.3,49.9,30.38,ESE,118,1.0,2.0,79,0.00,,,0.00,0,Wunderground v.1.15,2013-10-10 04:37:00,
2013-10-10 00:43:00,56.3,49.9,30.38,ENE,76,2.0,3.0,79,0.00,,,0.00,0,Wunderground v.1.15,2013-10-10 04:43:00,
2013-10-10 00:49:00,56.2,49.8,30.38,ESE,123,2.0,3.0,79,0.00,,,0.00,0,Wunderground v.1.15,2013-10-10 04:49:00,
2013-10-10 00:55:00,56.1,50.0,30.37,NNW,329,0.0,9.0,80,0.00,,,0.00,0,Wunderground v.1.15,2013-10-10 04:55:00,
2013-10-10 01:00:00,56.0,49.9,30.37,North,355,4.0,4.0,80,0.00,,,0.00,0,Wunderground v.1.15,2013-10-10 05:00:00,
2013-10-10 01:05:00,56.0,49.6,30.37,South,176,4.0,4.0,79,0.00,,,0.00,0,Wunderground v.1.15,2013-10-10 05:05:00,
2013-10-10 01:11:00,56.0,49.6,30.37,ESE,117,1.0,3.0,79,0.00,,,0.00,0,Wunderground v.1.15,2013-10-10 05:11:00,
2013-10-10 01:16:00,55.9,49.5,30.38,SE,127,3.0,7.0,79,0.00,,,0.00,0,Wunderground v.1.15,2013-10-10 05:16:00,
2013-10-10 01:22:00,55.9,49.8,30.38,SE,131,2.0,2.0,80,0.00,,,0.00,0,Wunderground v.1.15,2013-10-10 05:22:00,
2013-10-10 01:27:00,55.8,49.7,30.37,WSW,250,4.0,5.0,80,0.00,,,0.00,0,Wunderground v.1.15,2013-10-10 05:27:00,
2013-10-10 01:33:00,55.8,49.7,30.37,SE,128,1.0,3.0,80,0.00,,,0.00,0,Wunderground v.1.15,2013-10-10 05:33:00,
2013-10-10 01:39:00,55.7,49.6,30.37,SSE,147,0.0,3.0,80,0.00,,,0.00,0,Wunderground v.1.15,2013-10-10 05:39:00,
2013-10-10 01:45:00,55.7,50.0,30.38,West,281,1.0,8.0,81,0.00,,,0.00,0,weatherlink.com 1.10,2013-10-10 05:45:00,
2013-10-10 01:50:00,55.6,49.9,30.38,East,93,3.0,3.0,81,0.00,,,0.00,0,Wunderground v.1.15,2013-10-10 05:50:00,
2013-10-10 01:56:00,55.6,50.2,30.38,SE,139,1.0,3.0,82,0.00,,,0.00,0,Wunderground v.1.15,2013-10-10 05:56:00,
2013-10-10 02:01:00,55.5,50.1,30.38,ENE,69,3.0,3.0,82,0.00,,,0.00,0,Wunderground v.1.15,2013-10-10 06:01:00,
2013-10-10 02:06:00,55.5,50.1,30.37,SSE,148,2.0,4.0,82,0.00,,,0.00,0,Wunderground v.1.15,2013-10-10 06:06:00,
2013-10-10 02:11:00,55.4,50.3,30.37,SSW,212,2.0,3.0,83,0.00,,,0.00,0,Wunderground v.1.15,2013-10-10 06:11:00,
2013-10-10 02:16:00,55.3,49.9,30.37,NW,319,2.0,6.0,82,0.00,,,0.00,0,Wunderground v.1.15,2013-10-10 06:16:00,
2013-10-10 02:21:00,55.3,49.9,30.36,NNE,27,1.0,5.0,82,0.00,,,0.00,0,Wunderground v.1.15,2013-10-10 06:21:00,
2013-10-10 02:26:00,55.4,50.3,30.36,South,177,1.0,5.0,83,0.00,,,0.00,0,Wunderground v.1.15,2013-10-10 06:26:00,
2013-10-10 02:31:00,55.4,50.3,30.36,SSE,153,2.0,4.0,83,0.00,,,0.00,0,Wunderground v.1.15,2013-10-10 06:31:00,
2013-10-10 02:36:00,55.4,50.3,30.36,SSW,213,0.0,6.0,83,0.00,,,0.00,0,Wunderground v.1.15,2013-10-10 06:36:00,
2013-10-10 02:41:00,55.4,50.3,30.35,South,177,0.0,2.0,83,0.00,,,0.00,0,Wunderground v.1.15,2013-10-10 06:41:00,
2013-10-10 02:46:00,55.4,50.3,30.36,ESE,103,0.0,7.0,83,0.00,,,0.00,0,Wunderground v.1.15,2013-10-10 06:46:00,
2013-10-10 02:51:00,55.4,50.3,30.36,SE,143,0.0,7.0,83,0.00,,,0.00,0,Wunderground v.1.15,2013-10-10 06:51:00,
2013-10-10 02:56:00,55.4,50.3,30.35,ESE,102,3.0,7.0,83,0.00,,,0.00,0,Wunderground v.1.15,2013-10-10 06:56:00,
2013-10-10 03:01:00,55.5,50.4,30.35,ESE,119,8.0,8.0,83,0.00,,,0.00,0,Wunderground v.1.15,2013-10-10 07:01:00,
2013-10-10 03:06:00,55.5,50.7,30.35,East,95,1.0,8.0,84,0.00,,,0.00,0,Wunderground v.1.15,2013-10-10 07:06:00,
2013-10-10 03:11:00,55.5,50.7,30.35,South,191,5.0,8.0,84,0.00,,,0.00,0,Wunderground v.1.15,2013-10-10 07:11:00,
2013-10-10 03:16:00,55.5,50.7,30.35,NNW,338,3.0,9.0,84,0.00,,,0.00,0,Wunderground v.1.15,2013-10-10 07:16:00,
2013-10-10 03:21:00,55.5,50.7,30.35,SSW,207,3.0,7.0,84,0.00,,,0.00,0,Wunderground v.1.15,2013-10-10 07:21:00,
2013-10-10 03:26:00,55.5,50.7,30.34,ENE,57,3.0,7.0,84,0.00,,,0.00,0,Wunderground v.1.15,2013-10-10 07:26:00,
2013-10-10 03:31:00,55.5,50.7,30.35,SSE,168,4.0,7.0,84,0.00,,,0.00,0,Wunderground v.1.15,2013-10-10 07:31:00,
2013-10-10 03:36:00,55.5,50.7,30.35,SSE,151,2.0,7.0,84,0.00,,,0.00,0,Wunderground v.1.15,2013-10-10 07:36:00,
2013-10-10 03:41:00,55.5,51.1,30.35,ENE,62,1.0,4.0,85,0.00,,,0.00,0,Wunderground v.1.15,2013-10-10 07:41:00,
2013-10-10 03:46:00,55.5,50.7,30.35,ENE,75,1.0,6.0,84,0.00,,,0.00,0,Wunderground v.1.15,2013-10-10 07:46:00,
2013-10-10 03:51:00,55.4,50.6,30.35,SE,139,2.0,7.0,84,0.00,,,0.00,0,Wunderground v.1.15,2013-10-10 07:51:00,
2013-10-10 03:56:00,55.4,50.6,30.35,East,86,1.0,7.0,84,0.00,,,0.00,0,Wunderground v.1.15,2013-10-10 07:56:00,
2013-10-10 04:01:00,55.3,50.5,30.35,NNE,23,1.0,8.0,84,0.00,,,0.00,0,Wunderground v.1.15,2013-10-10 08:01:00,
2013-10-10 04:06:00,55.3,50.5,30.34,SW,219,1.0,8.0,84,0.00,,,0.00,0,Wunderground v.1.15,2013-10-10 08:06:00,
2013-10-10 04:38:00,54.9,50.0,30.36,SE,140,1.0,7.0,84,0.00,,,0.00,0,weatherlink.com 1.10,2013-10-10 08:38:00,
2013-10-10 04:53:00,54.8,50.0,30.36,NE,40,2.0,6.0,85,0.00,,,0.00,0,weatherlink.com 1.10,2013-10-10 08:53:00,
2013-10-10 05:08:00,54.7,50.0,30.36,South,188,1.0,10.0,85,0.00,,,0.00,0,weatherlink.com 1.10,2013-10-10 09:08:00,
2013-10-10 05:23:00,54.7,50.0,30.35,ESE,104,1.0,8.0,85,0.00,,,0.00,0,weatherlink.com 1.10,2013-10-10 09:23:00,
2013-10-10 05:38:00,54.6,50.0,30.35,ENE,67,1.0,7.0,85,0.00,,,0.00,0,weatherlink.com 1.10,2013-10-10 09:38:00,
2013-10-10 05:53:00,54.6,50.0,30.35,NNW,340,1.0,7.0,85,0.00,,,0.00,0,weatherlink.com 1.10,2013-10-10 09:53:00,
2013-10-10 06:08:00,54.5,50.0,30.35,North,10,1.0,7.0,86,0.00,,,0.00,0,weatherlink.com 1.10,2013-10-10 10:08:00,
2013-10-10 06:23:00,54.4,50.0,30.35,ESE,119,1.0,11.0,86,0.00,,,0.00,0,weatherlink.com 1.10,2013-10-10 10:23:00,
2013-10-10 06:38:00,54.3,50.0,30.34,East,86,0.0,8.0,86,0.00,,,0.00,0,weatherlink.com 1.10,2013-10-10 10:38:00,
2013-10-10 06:53:00,54.2,50.0,30.34,West,261,1.0,9.0,86,0.00,,,0.00,0,weatherlink.com 1.10,2013-10-10 10:53:00,
2013-10-10 07:08:00,54.1,50.0,30.33,East,81,1.0,6.0,86,0.00,,,0.00,0,weatherlink.com 1.10,2013-10-10 11:08:00,
2013-10-10 07:23:00,54.0,50.0,30.34,SSW,202,4.0,9.0,86,0.00,,,0.00,7,weatherlink.com 1.10,2013-10-10 11:23:00,
2013-10-10 07:38:00,54.0,50.0,30.34,NE,37,1.0,7.0,86,0.00,,,0.00,16,weatherlink.com 1.10,2013-10-10 11:38:00,
2013-10-10 07:53:00,54.1,50.0,30.34,ESE,115,1.0,7.0,86,0.00,,,0.00,11,weatherlink.com 1.10,2013-10-10 11:53:00,
2013-10-10 08:08:00,54.3,50.0,30.34,NW,317,0.0,6.0,86,0.00,,,0.00,14,weatherlink.com 1.10,2013-10-10 12:08:00,
2013-10-10 08:23:00,54.4,51.0,30.34,ENE,70,1.0,7.0,87,0.00,,,0.00,35,weatherlink.com 1.10,2013-10-10 12:23:00,
2013-10-10 08:38:00,54.5,51.0,30.33,North,360,1.0,8.0,88,0.00,,,0.00,39,weatherlink.com 1.10,2013-10-10 12:38:00,
2013-10-10 08:53:00,54.7,51.0,30.33,East,92,2.0,6.0,88,0.00,,,0.00,37,weatherlink.com 1.10,2013-10-10 12:53:00,
2013-10-10 09:08:00,54.9,52.0,30.34,East,95,1.0,12.0,88,0.00,,,0.00,47,weatherlink.com 1.10,2013-10-10 13:08:00,
2013-10-10 09:23:00,55.1,52.0,30.33,NE,49,4.0,9.0,88,0.00,,,0.00,35,weatherlink.com 1.10,2013-10-10 13:23:00,
2013-10-10 09:38:00,55.1,52.0,30.33,NNE,14,10.0,11.0,88,0.00,,,0.00,42,weatherlink.com 1.10,2013-10-10 13:38:00,
2013-10-10 09:54:00,55.3,52.0,30.32,WSW,244,1.0,12.0,88,0.00,,,0.00,69,weatherlink.com 1.10,2013-10-10 13:54:00,
2013-10-10 10:09:00,55.6,52.0,30.32,ENE,59,3.0,12.0,88,0.00,,,0.00,69,weatherlink.com 1.10,2013-10-10 14:09:00,
2013-10-10 10:24:00,55.7,52.0,30.31,East,95,2.0,9.0,88,0.00,,,0.00,74,weatherlink.com 1.10,2013-10-10 14:24:00,
2013-10-10 10:39:00,55.8,52.0,30.30,ESE,107,4.0,11.0,88,0.00,,,0.00,111,weatherlink.com 1.10,2013-10-10 14:39:00,
2013-10-10 10:54:00,56.0,53.0,30.31,NE,38,4.0,11.0,89,0.00,,,0.00,141,weatherlink.com 1.10,2013-10-10 14:54:00,
2013-10-10 11:09:00,56.3,53.0,30.31,ENE,67,5.0,11.0,89,0.00,,,0.00,121,weatherlink.com 1.10,2013-10-10 15:09:00,
2013-10-10 11:24:00,56.4,53.0,30.30,NE,41,2.0,10.0,88,0.00,,,0.00,127,weatherlink.com 1.10,2013-10-10 15:24:00,
2013-10-10 11:39:00,56.7,53.0,30.30,North,10,3.0,12.0,88,0.00,,,0.00,156,weatherlink.com 1.10,2013-10-10 15:39:00,
2013-10-10 11:54:00,57.2,54.0,30.30,SE,127,3.0,7.0,88,0.00,,,0.00,167,weatherlink.com 1.10,2013-10-10 15:54:00,
2013-10-10 12:24:00,58.0,54.0,30.29,SE,130,2.0,9.0,86,0.00,,,0.00,167,weatherlink.com 1.10,2013-10-10 16:24:00,
2013-10-10 12:39:00,58.4,54.0,30.29,NNW,329,2.0,10.0,85,0.00,,,0.00,134,weatherlink.com 1.10,2013-10-10 16:39:00,
2013-10-10 12:54:00,58.7,54.0,30.28,East,86,7.0,11.0,84,0.00,,,0.00,214,weatherlink.com 1.10,2013-10-10 16:54:00,
2013-10-10 13:09:00,59.4,55.0,30.28,North,355,0.0,9.0,84,0.00,,,0.00,178,weatherlink.com 1.10,2013-10-10 17:09:00,
2013-10-10 13:24:00,59.8,55.0,30.28,ESE,115,3.0,14.0,83,0.00,,,0.00,265,weatherlink.com 1.10,2013-10-10 17:24:00,
2013-10-10 13:39:00,60.4,55.0,30.27,ENE,70,1.0,7.0,82,0.00,,,0.00,262,weatherlink.com 1.10,2013-10-10 17:39:00,
2013-10-10 13:54:00,61.0,55.0,30.26,East,101,3.0,13.0,80,0.00,,,0.00,267,weatherlink.com 1.10,2013-10-10 17:54:00,
2013-10-10 14:09:00,61.3,55.0,30.26,NE,43,3.0,14.0,80,0.00,,,0.00,258,weatherlink.com 1.10,2013-10-10 18:09:00,
2013-10-10 14:24:00,62.0,55.0,30.25,ESE,104,4.0,8.0,79,0.00,,,0.00,227,weatherlink.com 1.10,2013-10-10 18:24:00,
2013-10-10 14:39:00,61.6,55.0,30.25,ENE,71,2.0,10.0,80,0.00,,,0.00,132,weatherlink.com 1.10,2013-10-10 18:39:00,
2013-10-10 14:47:00,61.2,55.0,30.25,East,79,2.0,3.0,80,0.00,,,0.00,146,Wunderground v.1.15,2013-10-10 18:47:00,
2013-10-10 14:51:00,61.2,55.3,30.25,NW,311,5.0,6.0,81,0.00,,,0.00,155,Wunderground v.1.15,2013-10-10 18:51:00,
2013-10-10 14:57:00,61.3,55.4,30.25,ENE,67,2.0,7.0,81,0.00,,,0.00,156,Wunderground v.1.15,2013-10-10 18:57:00,
2013-10-10 15:02:00,61.4,55.5,30.25,ESE,104,3.0,7.0,81,0.00,,,0.00,149,Wunderground v.1.15,2013-10-10 19:02:00,
2013-10-10 15:07:00,61.4,55.5,30.25,ESE,115,4.0,10.0,81,0.00,,,0.00,134,Wunderground v.1.15,2013-10-10 19:07:00,
2013-10-10 15:12:00,61.5,55.6,30.25,ENE,74,4.0,5.0,81,0.00,,,0.00,176,Wunderground v.1.15,2013-10-10 19:12:00,
2013-10-10 15:17:00,61.6,56.0,30.24,East,88,1.0,8.0,82,0.00,,,0.00,151,Wunderground v.1.15,2013-10-10 19:17:00,
2013-10-10 15:22:00,61.7,56.1,30.24,ENE,58,3.0,12.0,82,0.00,,,0.00,179,Wunderground v.1.15,2013-10-10 19:22:00,
2013-10-10 15:27:00,61.8,56.2,30.24,NNW,344,9.0,12.0,82,0.00,,,0.00,165,Wunderground v.1.15,2013-10-10 19:27:00,
2013-10-10 15:32:00,61.9,56.3,30.24,NNE,13,4.0,8.0,82,0.00,,,0.00,149,Wunderground v.1.15,2013-10-10 19:32:00,
2013-10-10 15:37:00,61.9,56.0,30.23,ESE,119,2.0,8.0,81,0.00,,,0.00,162,Wunderground v.1.15,2013-10-10 19:37:00,
2013-10-10 15:42:00,62.0,56.1,30.23,West,275,3.0,7.0,81,0.00,,,0.00,120,Wunderground v.1.15,2013-10-10 19:42:00,
2013-10-10 15:47:00,62.1,56.2,30.23,West,279,4.0,7.0,81,0.00,,,0.00,163,Wunderground v.1.15,2013-10-10 19:47:00,
2013-10-10 15:52:00,62.1,56.2,30.23,East,94,2.0,5.0,81,0.00,,,0.00,162,Wunderground v.1.15,2013-10-10 19:52:00,
2013-10-10 15:57:00,62.3,56.4,30.23,NNE,24,3.0,9.0,81,0.00,,,0.00,146,Wunderground v.1.15,2013-10-10 19:57:00,
2013-10-10 16:02:00,62.5,56.6,30.23,East,84,1.0,8.0,81,0.00,,,0.00,128,Wunderground v.1.15,2013-10-10 20:02:00,
2013-10-10 16:07:00,62.6,56.3,30.23,East,99,2.0,8.0,80,0.00,,,0.00,158,Wunderground v.1.15,2013-10-10 20:07:00,
2013-10-10 16:12:00,62.7,56.4,30.23,ENE,66,3.0,8.0,80,0.00,,,0.00,162,Wunderground v.1.15,2013-10-10 20:12:00,
2013-10-10 16:17:00,62.7,56.4,30.22,East,96,5.0,8.0,80,0.00,,,0.00,144,Wunderground v.1.15,2013-10-10 20:17:00,
2013-10-10 16:22:00,62.8,56.5,30.22,East,81,3.0,5.0,80,0.00,,,0.00,137,Wunderground v.1.15,2013-10-10 20:22:00,
2013-10-10 16:27:00,62.9,56.6,30.22,West,279,3.0,8.0,80,0.00,,,0.00,142,Wunderground v.1.15,2013-10-10 20:27:00,
2013-10-10 16:31:00,63.0,56.7,30.22,NW,325,5.0,6.0,80,0.00,,,0.00,142,Wunderground v.1.15,2013-10-10 20:31:00,
2013-10-10 16:36:00,63.1,56.8,30.21,NE,45,5.0,7.0,80,0.00,,,0.00,114,Wunderground v.1.15,2013-10-10 20:36:00,
2013-10-10 16:41:00,63.2,56.9,30.21,NNW,333,2.0,5.0,80,0.00,,,0.00,109,Wunderground v.1.15,2013-10-10 20:41:00,
2013-10-10 16:46:00,63.3,57.0,30.21,NNE,25,2.0,13.0,80,0.00,,,0.00,111,Wunderground v.1.15,2013-10-10 20:46:00,
2013-10-10 16:51:00,63.3,56.7,30.21,NNE,17,0.0,7.0,79,0.00,,,0.00,69,Wunderground v.1.15,2013-10-10 20:51:00,
2013-10-10 16:56:00,63.4,57.1,30.22,NNE,18,2.0,8.0,80,0.00,,,0.00,35,Wunderground v.1.15,2013-10-10 20:56:00,
2013-10-10 17:02:00,63.3,57.0,30.21,ENE,72,0.0,4.0,80,0.00,,,0.00,28,Wunderground v.1.15,2013-10-10 21:02:00,
2013-10-10 17:07:00,63.2,56.9,30.21,North,11,1.0,8.0,80,0.00,,,0.00,23,Wunderground v.1.15,2013-10-10 21:07:00,
2013-10-10 17:12:00,63.1,56.8,30.21,ENE,65,5.0,10.0,80,0.00,,,0.00,21,Wunderground v.1.15,2013-10-10 21:12:00,
2013-10-10 17:17:00,62.9,56.6,30.21,NNE,33,2.0,10.0,80,0.00,,,0.00,26,Wunderground v.1.15,2013-10-10 21:17:00,
2013-10-10 17:22:00,62.8,56.5,30.20,NNE,24,1.0,6.0,80,0.00,,,0.00,30,Wunderground v.1.15,2013-10-10 21:22:00,
2013-10-10 17:27:00,62.7,56.4,30.21,NNW,342,1.0,6.0,80,0.00,,,0.00,26,Wunderground v.1.15,2013-10-10 21:27:00,
2013-10-10 17:32:00,62.7,56.4,30.21,NNW,336,1.0,7.0,80,0.00,,,0.00,25,Wunderground v.1.15,2013-10-10 21:32:00,
2013-10-10 17:37:00,62.7,56.4,30.21,ESE,119,2.0,7.0,80,0.00,,,0.00,23,Wunderground v.1.15,2013-10-10 21:37:00,
2013-10-10 17:42:00,62.6,56.3,30.21,North,355,3.0,8.0,80,0.00,,,0.00,19,Wunderground v.1.15,2013-10-10 21:42:00,
2013-10-10 17:47:00,62.5,56.2,30.21,North,5,6.0,10.0,80,0.00,,,0.00,16,Wunderground v.1.15,2013-10-10 21:47:00,
2013-10-10 17:52:00,62.4,56.1,30.21,NE,34,0.0,6.0,80,0.00,,,0.00,12,Wunderground v.1.15,2013-10-10 21:52:00,
2013-10-10 17:57:00,62.4,56.1,30.21,SSW,202,3.0,6.0,80,0.00,,,0.00,7,Wunderground v.1.15,2013-10-10 21:57:00,
2013-10-10 18:02:00,62.3,56.0,30.21,ESE,110,3.0,3.0,80,0.00,,,0.00,5,Wunderground v.1.15,2013-10-10 22:02:00,
2013-10-10 18:07:00,62.3,56.0,30.21,SSE,153,0.0,5.0,80,0.00,,,0.00,0,Wunderground v.1.15,2013-10-10 22:07:00,
2013-10-10 18:12:00,62.2,56.3,30.22,North,5,1.0,3.0,81,0.00,,,0.00,0,Wunderground v.1.15,2013-10-10 22:12:00,
2013-10-10 18:17:00,62.2,56.3,30.21,East,94,0.0,7.0,81,0.00,,,0.00,0,Wunderground v.1.15,2013-10-10 22:17:00,
2013-10-10 18:22:00,62.2,56.3,30.21,East,93,2.0,9.0,81,0.00,,,0.00,0,Wunderground v.1.15,2013-10-10 22:22:00,
2013-10-10 18:27:00,62.1,56.2,30.21,East,83,1.0,9.0,81,0.00,,,0.00,0,Wunderground v.1.15,2013-10-10 22:27:00,
2013-10-10 18:32:00,62.1,55.9,30.21,North,355,6.0,6.0,80,0.00,,,0.00,0,Wunderground v.1.15,2013-10-10 22:32:00,
2013-10-10 18:37:00,62.0,55.8,30.21,NW,323,2.0,10.0,80,0.00,,,0.00,0,Wunderground v.1.15,2013-10-10 22:37:00,
2013-10-10 18:42:00,62.0,55.8,30.22,SSE,148,5.0,8.0,80,0.00,,,0.00,0,Wunderground v.1.15,2013-10-10 22:42:00,
2013-10-10 18:47:00,62.0,55.8,30.22,SE,142,6.0,13.0,80,0.00,,,0.00,0,Wunderground v.1.15,2013-10-10 22:47:00,
2013-10-10 18:52:00,61.9,55.7,30.21,NNW,329,2.0,4.0,80,0.00,,,0.00,0,Wunderground v.1.15,2013-10-10 22:52:00,
2013-10-10 18:57:00,61.9,55.7,30.22,NE,53,3.0,12.0,80,0.00,,,0.00,0,Wunderground v.1.15,2013-10-10 22:57:00,
2013-10-10 19:02:00,61.9,55.7,30.22,WSW,258,1.0,6.0,80,0.00,,,0.00,0,Wunderground v.1.15,2013-10-10 23:02:00,
2013-10-10 19:07:00,61.8,55.6,30.22,ENE,76,2.0,8.0,80,0.00,,,0.00,0,Wunderground v.1.15,2013-10-10 23:07:00,
2013-10-10 19:12:00,61.7,55.5,30.22,ENE,64,4.0,5.0,80,0.00,,,0.00,0,Wunderground v.1.15,2013-10-10 23:12:00,
2013-10-10 19:17:00,61.7,55.5,30.22,NNE,24,4.0,6.0,80,0.00,,,0.00,0,Wunderground v.1.15,2013-10-10 23:17:00,
2013-10-10 19:22:00,61.6,55.7,30.21,WSW,253,5.0,8.0,81,0.00,,,0.00,0,Wunderground v.1.15,2013-10-10 23:22:00,
2013-10-10 19:27:00,61.6,55.7,30.22,NNE,18,5.0,8.0,81,0.00,,,0.00,0,Wunderground v.1.15,2013-10-10 23:27:00,
2013-10-10 19:32:00,61.5,55.6,30.22,North,355,2.0,7.0,81,0.00,,,0.00,0,Wunderground v.1.15,2013-10-10 23:32:00,
2013-10-10 19:37:00,61.5,55.6,30.22,NW,310,5.0,8.0,81,0.00,,,0.00,0,Wunderground v.1.15,2013-10-10 23:37:00,
2013-10-10 19:42:00,61.5,55.6,30.21,NE,40,1.0,8.0,81,0.00,,,0.00,0,Wunderground v.1.15,2013-10-10 23:42:00,
2013-10-10 19:47:00,61.4,55.5,30.22,East,80,1.0,8.0,81,0.00,,,0.00,0,Wunderground v.1.15,2013-10-10 23:47:00,
2013-10-10 19:52:00,61.4,55.5,30.22,ENE,63,2.0,8.0,81,0.00,,,0.00,0,Wunderground v.1.15,2013-10-10 23:52:00,
2013-10-10 19:57:00,61.4,55.5,30.22,SSE,158,3.0,9.0,81,0.00,,,0.00,0,Wunderground v.1.15,2013-10-10 23:57:00,
2013-10-10 20:03:00,61.3,55.4,30.22,SE,130,4.0,10.0,81,0.00,,,0.00,0,Wunderground v.1.15,2013-10-11 00:03:00,
2013-10-10 20:08:00,61.3,55.4,30.22,ESE,110,3.0,10.0,81,0.00,,,0.00,0,Wunderground v.1.15,2013-10-11 00:08:00,
2013-10-10 20:13:00,61.3,55.4,30.21,ENE,58,4.0,4.0,81,0.00,,,0.00,0,Wunderground v.1.15,2013-10-11 00:13:00,
2013-10-10 20:18:00,61.2,55.3,30.21,NNE,28,5.0,8.0,81,0.00,,,0.00,0,Wunderground v.1.15,2013-10-11 00:18:00,
2013-10-10 20:23:00,61.2,55.3,30.21,ENE,65,4.0,8.0,81,0.00,,,0.00,0,Wunderground v.1.15,2013-10-11 00:23:00,
2013-10-10 20:28:00,61.2,55.3,30.21,SSE,153,2.0,8.0,81,0.00,,,0.00,0,Wunderground v.1.15,2013-10-11 00:28:00,
2013-10-10 20:33:00,61.1,55.2,30.21,NNE,19,8.0,11.0,81,0.00,,,0.00,0,Wunderground v.1.15,2013-10-11 00:33:00,
2013-10-10 20:38:00,61.1,55.2,30.21,SE,138,1.0,11.0,81,0.00,,,0.00,0,Wunderground v.1.15,2013-10-11 00:38:00,
2013-10-10 20:43:00,61.0,55.1,30.20,East,83,5.0,10.0,81,0.00,,,0.00,0,Wunderground v.1.15,2013-10-11 00:43:00,
2013-10-10 20:48:00,60.9,55.0,30.20,SE,130,3.0,10.0,81,0.00,,,0.00,0,Wunderground v.1.15,2013-10-11 00:48:00,
2013-10-10 20:53:00,60.8,54.9,30.20,NE,34,11.0,11.0,81,0.00,,,0.00,0,Wunderground v.1.15,2013-10-11 00:53:00,
2013-10-10 20:58:00,60.8,55.3,30.21,ESE,107,1.0,11.0,82,0.00,,,0.00,0,Wunderground v.1.15,2013-10-11 00:58:00,
2013-10-10 21:03:00,60.7,54.8,30.20,East,90,1.0,7.0,81,0.00,,,0.00,0,Wunderground v.1.15,2013-10-11 01:03:00,
2013-10-10 21:09:00,60.6,54.7,30.20,East,101,6.0,9.0,81,0.00,,,0.00,0,Wunderground v.1.15,2013-10-11 01:09:00,
2013-10-10 21:14:00,60.5,55.0,30.20,NNW,338,3.0,5.0,82,0.00,,,0.00,0,Wunderground v.1.15,2013-10-11 01:14:00,
2013-10-10 21:19:00,60.4,54.9,30.20,South,186,2.0,8.0,82,0.00,,,0.00,0,Wunderground v.1.15,2013-10-11 01:19:00,
2013-10-10 21:24:00,60.4,54.9,30.20,East,91,3.0,9.0,82,0.00,,,0.00,0,Wunderground v.1.15,2013-10-11 01:24:00,
2013-10-10 21:29:00,60.4,54.9,30.20,East,96,2.0,9.0,82,0.00,,,0.00,0,Wunderground v.1.15,2013-10-11 01:29:00,
2013-10-10 21:35:00,60.4,54.9,30.20,SW,236,0.0,9.0,82,0.00,,,0.00,0,Wunderground v.1.15,2013-10-11 01:35:00,
2013-10-10 21:40:00,60.3,54.8,30.20,ENE,68,5.0,5.0,82,0.00,,,0.00,0,Wunderground v.1.15,2013-10-11 01:40:00,
2013-10-10 21:45:00,60.4,54.9,30.20,NE,40,3.0,11.0,82,0.00,,,0.00,0,Wunderground v.1.15,2013-10-11 01:45:00,
2013-10-10 21:50:00,60.4,54.9,30.21,NE,55,1.0,3.0,82,0.00,,,0.00,0,Wunderground v.1.15,2013-10-11 01:50:00,
2013-10-10 21:55:00,60.4,54.9,30.20,SE,129,7.0,8.0,82,0.00,,,0.00,0,Wunderground v.1.15,2013-10-11 01:55:00,
2013-10-10 22:00:00,60.5,55.0,30.20,ENE,67,2.0,3.0,82,0.00,,,0.00,0,Wunderground v.1.15,2013-10-11 02:00:00,
2013-10-10 22:05:00,60.5,55.0,30.20,East,88,7.0,10.0,82,0.00,,,0.00,0,Wunderground v.1.15,2013-10-11 02:05:00,
2013-10-10 22:10:00,60.5,55.0,30.21,ESE,111,2.0,3.0,82,0.00,,,0.00,0,Wunderground v.1.15,2013-10-11 02:10:00,
2013-10-10 22:15:00,60.6,55.1,30.21,NNE,16,7.0,7.0,82,0.00,,,0.00,0,Wunderground v.1.15,2013-10-11 02:15:00,
2013-10-10 22:20:00,60.6,55.1,30.21,ENE,70,1.0,3.0,82,0.00,,,0.00,0,Wunderground v.1.15,2013-10-11 02:20:00,
2013-10-10 22:25:00,60.6,55.1,30.20,West,267,2.0,6.0,82,0.00,,,0.00,0,Wunderground v.1.15,2013-10-11 02:25:00,
2013-10-10 22:30:00,60.6,55.1,30.20,North,355,1.0,3.0,82,0.00,,,0.00,0,Wunderground v.1.15,2013-10-11 02:30:00,
2013-10-10 22:35:00,60.5,55.0,30.20,SE,128,3.0,10.0,82,0.00,,,0.00,0,Wunderground v.1.15,2013-10-11 02:35:00,